Time;durP1;ratioP1;P1;durP2;ratioP2;P2;SDS_P1;SDS_P2;PMS_P1;PMS_P2;Temp;Humidity;BMP_temperature;BMP_pressure;BME280_temperature;BME280_humidity;BME280_pressure;Samples;Min_cycle;Max_cycle;Signal;HPM_P1;HPM_P2
2021/10/22 00:01:21;;;;;;;28.30;21.92;;;;;;;14.19;100.00;101107.41;4936852;29;20032;-71
2021/10/22 00:04:07;;;;;;;32.03;21.95;;;;;;;14.25;100.00;101107.31;4937760;28;20118;-71
2021/10/22 00:06:53;;;;;;;31.27;21.83;;;;;;;14.38;100.00;101110.47;4937490;28;20036;-71
2021/10/22 00:09:39;;;;;;;30.55;22.55;;;;;;;14.10;100.00;101101.50;4937570;28;20051;-72
2021/10/22 00:12:25;;;;;;;28.83;22.15;;;;;;;14.09;100.00;101105.94;4937934;28;20032;-72
2021/10/22 00:15:11;;;;;;;30.33;22.00;;;;;;;13.74;100.00;101119.09;4936323;29;20051;-72
2021/10/22 00:17:57;;;;;;;33.58;23.85;;;;;;;13.62;100.00;101113.25;4936614;29;20031;-72
2021/10/22 00:20:42;;;;;;;29.63;22.05;;;;;;;13.80;100.00;101112.81;4937857;29;20464;-72
2021/10/22 00:23:28;;;;;;;27.88;22.48;;;;;;;13.39;100.00;101118.19;4936224;29;20036;-72
2021/10/22 00:26:14;;;;;;;28.48;22.67;;;;;;;13.74;100.00;101110.31;4937195;29;20038;-72
2021/10/22 00:29:00;;;;;;;28.70;22.30;;;;;;;13.77;100.00;101107.63;4923681;29;20036;-72
2021/10/22 00:31:46;;;;;;;30.33;22.67;;;;;;;13.50;100.00;101103.88;4923878;29;20079;-72
2021/10/22 00:34:31;;;;;;;29.67;23.27;;;;;;;13.86;100.00;101110.91;4937439;28;20094;-72
2021/10/22 00:37:17;;;;;;;31.50;23.15;;;;;;;13.64;100.00;101108.84;4936661;29;20027;-72
2021/10/22 00:40:04;;;;;;;28.08;21.67;;;;;;;13.85;100.00;101111.81;4927569;28;20043;-72
2021/10/22 00:42:55;;;;;;;31.80;22.23;;;;;;;13.93;100.00;101109.84;4939650;29;20075;-72
2021/10/22 00:45:42;;;;;;;28.52;22.98;;;;;;;13.75;100.00;101114.72;4941286;28;20031;-72
2021/10/22 00:48:28;;;;;;;29.90;21.30;;;;;;;13.46;100.00;101115.38;4940357;29;20477;-72
2021/10/22 00:51:15;;;;;;;33.03;23.45;;;;;;;13.69;100.00;101114.84;4927129;29;20055;-72
2021/10/22 00:54:05;;;;;;;27.42;20.80;;;;;;;13.87;100.00;101114.41;4939725;29;20030;-72
2021/10/22 00:56:51;;;;;;;25.92;21.05;;;;;;;13.69;100.00;101115.72;4940166;29;20038;-71
2021/10/22 00:59:38;;;;;;;26.45;20.67;;;;;;;13.69;100.00;101113.09;4939891;29;20449;-72
2021/10/22 01:02:23;;;;;;;27.73;20.80;;;;;;;13.53;100.00;101106.44;4940333;29;20110;-72
2021/10/22 01:05:12;;;;;;;27.90;20.13;;;;;;;13.56;100.00;101108.13;4940004;29;20042;-71
2021/10/22 01:08:00;;;;;;;26.38;20.40;;;;;;;13.59;100.00;101111.56;4926835;29;20054;-72
2021/10/22 01:10:47;;;;;;;36.38;21.67;;;;;;;13.44;100.00;101101.41;4939083;29;20048;-71
2021/10/22 01:13:33;;;;;;;36.83;21.88;;;;;;;13.19;100.00;101112.50;4939957;29;20023;-72
2021/10/22 01:16:18;;;;;;;30.25;20.25;;;;;;;13.21;100.00;101108.06;4940274;28;20090;-71
2021/10/22 01:19:05;;;;;;;27.35;20.65;;;;;;;13.32;100.00;101106.94;4939266;29;20055;-72
2021/10/22 01:21:52;;;;;;;28.80;21.20;;;;;;;13.21;100.00;101105.44;4940158;28;20043;-72
2021/10/22 01:24:37;;;;;;;26.08;20.20;;;;;;;13.27;100.00;101110.56;4939898;28;20090;-72
2021/10/22 01:27:24;;;;;;;32.35;21.08;;;;;;;13.33;100.00;101107.78;4925960;29;20086;-71
2021/10/22 01:30:12;;;;;;;27.77;20.83;;;;;;;12.99;100.00;101109.44;4939509;29;20039;-72
2021/10/22 01:33:04;;;;;;;28.73;21.27;;;;;;;13.07;100.00;101107.50;4926510;29;20032;-72
2021/10/22 01:35:50;;;;;;;30.98;21.73;;;;;;;13.08;100.00;101114.50;4926975;28;20031;-72
2021/10/22 01:38:36;;;;;;;29.77;21.50;;;;;;;13.18;100.00;101106.38;4939718;29;20095;-72
2021/10/22 01:41:22;;;;;;;29.30;21.02;;;;;;;12.76;100.00;101114.25;4938981;29;20094;-72
2021/10/22 01:44:12;;;;;;;26.00;20.40;;;;;;;13.04;100.00;101112.84;4939420;29;20027;-72
2021/10/22 01:46:58;;;;;;;26.90;20.27;;;;;;;12.89;100.00;101114.00;4925785;29;20528;-72
2021/10/22 01:49:44;;;;;;;28.20;20.90;;;;;;;13.17;100.00;101109.03;4939046;28;20035;-72
2021/10/22 01:52:30;;;;;;;28.70;21.65;;;;;;;13.18;100.00;101113.41;4939848;28;20388;-72
2021/10/22 01:55:16;;;;;;;26.20;20.60;;;;;;;13.43;100.00;101107.56;4925513;29;20102;-72
2021/10/22 01:58:02;;;;;;;30.42;22.33;;;;;;;13.30;100.00;101114.00;4938492;29;20028;-72
2021/10/22 02:00:49;;;;;;;30.02;21.65;;;;;;;13.52;100.00;101110.00;4925725;29;20086;-71
2021/10/22 02:03:35;;;;;;;28.77;21.88;;;;;;;13.36;100.00;101111.25;4938076;29;20051;-71
2021/10/22 02:06:20;;;;;;;31.30;22.02;;;;;;;13.05;100.00;101114.56;4938695;29;20031;-73
2021/10/22 02:09:06;;;;;;;29.90;21.70;;;;;;;13.21;100.00;101108.94;4938839;29;20114;-72
2021/10/22 02:11:52;;;;;;;27.23;20.95;;;;;;;13.30;100.00;101121.03;4939145;28;20036;-72
2021/10/22 02:14:37;;;;;;;32.28;23.38;;;;;;;13.27;100.00;101114.06;4939335;28;20028;-71
2021/10/22 02:17:23;;;;;;;29.35;20.90;;;;;;;13.28;100.00;101118.44;4938486;29;20039;-71
2021/10/22 02:20:10;;;;;;;27.23;21.35;;;;;;;13.25;100.00;101123.75;4938713;29;20500;-71
2021/10/22 02:22:56;;;;;;;30.27;22.60;;;;;;;13.35;100.00;101117.38;4939310;28;20445;-71
2021/10/22 02:25:43;;;;;;;29.58;21.30;;;;;;;13.09;100.00;101114.47;4937755;29;20126;-72
2021/10/22 02:28:29;;;;;;;28.27;21.27;;;;;;;12.79;100.00;101119.47;4938291;29;20031;-72
2021/10/22 02:31:16;;;;;;;28.77;20.75;;;;;;;12.96;100.00;101110.34;4925366;29;20031;-72
2021/10/22 02:34:01;;;;;;;29.58;20.08;;;;;;;12.60;100.00;101118.97;4938804;29;20503;-71
2021/10/22 02:36:49;;;;;;;27.95;21.17;;;;;;;12.35;100.00;101129.97;4938254;29;20055;-71
2021/10/22 02:39:36;;;;;;;27.23;20.60;;;;;;;12.77;100.00;101140.53;4938869;28;20070;-72
2021/10/22 02:42:22;;;;;;;30.00;21.23;;;;;;;12.95;100.00;101137.50;4938188;29;20038;-71
2021/10/22 02:45:08;;;;;;;27.83;20.90;;;;;;;12.98;100.00;101139.28;4938992;28;20032;-71
2021/10/22 02:47:54;;;;;;;28.48;21.60;;;;;;;12.70;100.00;101138.06;4938888;28;20114;-72
2021/10/22 02:50:40;;;;;;;26.70;20.95;;;;;;;12.74;100.00;101145.84;4938713;28;20031;-72
2021/10/22 02:53:26;;;;;;;28.77;20.83;;;;;;;12.75;100.00;101144.97;4924891;29;20032;-72
2021/10/22 02:56:11;;;;;;;27.85;20.05;;;;;;;13.01;100.00;101147.97;4938516;28;20039;-72
2021/10/22 02:58:57;;;;;;;27.98;20.73;;;;;;;13.18;100.00;101147.63;4924384;29;20031;-72
2021/10/22 03:01:43;;;;;;;26.65;19.42;;;;;;;13.37;100.00;101143.66;4938156;29;20042;-70
2021/10/22 03:04:29;;;;;;;26.83;20.52;;;;;;;13.15;100.00;101147.69;4924321;29;20057;-72
2021/10/22 03:07:15;;;;;;;31.00;20.10;;;;;;;13.26;100.00;101143.06;4937607;29;20106;-71
2021/10/22 03:10:01;;;;;;;28.75;20.73;;;;;;;13.11;100.00;101149.50;4923593;29;20063;-71
2021/10/22 03:12:46;;;;;;;29.15;21.95;;;;;;;13.34;100.00;101149.88;4937170;29;20353;-71
2021/10/22 03:15:32;;;;;;;28.23;19.92;;;;;;;13.19;100.00;101151.97;4937719;29;20405;-72
2021/10/22 03:18:19;;;;;;;26.85;19.92;;;;;;;13.00;100.00;101154.13;4937888;28;20036;-72
2021/10/22 03:21:04;;;;;;;26.40;20.15;;;;;;;13.23;100.00;101157.13;4938348;28;20036;-72
2021/10/22 03:23:55;;;;;;;27.17;20.52;;;;;;;13.37;100.00;101160.34;4937695;28;20023;-71
2021/10/22 03:26:41;;;;;;;27.08;20.50;;;;;;;13.50;100.00;101163.56;4937298;29;20342;-72
2021/10/22 03:29:26;;;;;;;26.10;20.33;;;;;;;13.56;100.00;101171.31;4938747;28;20342;-71
2021/10/22 03:32:13;;;;;;;27.95;21.00;;;;;;;13.43;100.00;101161.97;4938053;28;20027;-71
2021/10/22 03:35:03;;;;;;;28.83;21.52;;;;;;;13.12;100.00;101167.03;4937068;29;20488;-72
2021/10/22 03:37:49;;;;;;;30.58;21.02;;;;;;;13.20;100.00;101170.38;4924154;29;20565;-72
2021/10/22 03:40:35;;;;;;;28.10;19.63;;;;;;;13.33;100.00;101179.72;4923775;29;20098;-71
2021/10/22 03:43:22;;;;;;;26.35;20.65;;;;;;;13.45;100.00;101168.94;4937502;29;20051;-72
2021/10/22 03:46:07;;;;;;;29.83;20.98;;;;;;;13.43;100.00;101172.50;4938160;28;20027;-72
2021/10/22 03:48:53;;;;;;;28.92;20.80;;;;;;;13.26;100.00;101167.59;4937609;29;20031;-71
2021/10/22 03:51:39;;;;;;;30.63;21.70;;;;;;;13.21;100.00;101164.19;4938237;29;20134;-71
2021/10/22 03:54:25;;;;;;;28.50;21.65;;;;;;;13.20;100.00;101153.69;4937983;28;20031;-71
2021/10/22 03:57:11;;;;;;;31.15;21.50;;;;;;;13.00;100.00;101167.28;4937283;29;20098;-72
2021/10/22 03:59:57;;;;;;;30.42;22.33;;;;;;;13.10;100.00;101162.69;4937340;28;20038;-71
2021/10/22 04:02:42;;;;;;;31.58;22.88;;;;;;;13.20;100.00;101157.22;4937022;28;20024;-72
2021/10/22 04:05:28;;;;;;;31.58;22.90;;;;;;;13.00;100.00;101164.66;4937763;28;20035;-72
2021/10/22 04:08:16;;;;;;;36.25;23.23;;;;;;;13.06;100.00;101159.25;4937929;28;20027;-72
2021/10/22 04:11:02;;;;;;;35.65;24.05;;;;;;;12.90;100.00;101157.78;4937941;28;20051;-71
2021/10/22 04:13:47;;;;;;;38.75;23.15;;;;;;;12.68;100.00;101164.38;4939194;29;20031;-71
2021/10/22 04:16:33;;;;;;;35.65;23.23;;;;;;;12.61;100.00;101161.88;4941679;28;20032;-72
2021/10/22 04:19:19;;;;;;;34.33;23.08;;;;;;;12.96;100.00;101160.31;4941278;29;20054;-72
2021/10/22 04:22:05;;;;;;;29.50;22.33;;;;;;;13.13;100.00;101165.25;4941820;28;20031;-72
2021/10/22 04:24:51;;;;;;;29.65;21.50;;;;;;;13.03;100.00;101171.59;4942857;28;20027;-72
2021/10/22 04:27:37;;;;;;;26.77;20.85;;;;;;;12.96;100.00;101173.47;4941410;28;20042;-72
2021/10/22 04:30:23;;;;;;;30.73;20.48;;;;;;;12.93;100.00;101168.25;4927117;29;20405;-72
2021/10/22 04:33:08;;;;;;;26.05;20.23;;;;;;;12.90;100.00;101167.47;4926713;29;20027;-72
2021/10/22 04:35:54;;;;;;;27.25;21.02;;;;;;;13.14;100.00;101162.59;4940610;29;20441;-72
2021/10/22 04:42:04;;;;;;;28.63;20.17;;;;;;;13.22;100.00;101170.34;4920086;29;20024;-72
2021/10/22 04:44:49;;;;;;;30.90;21.60;;;;;;;13.15;100.00;101172.19;4926765;29;20042;-72
2021/10/22 04:47:39;;;;;;;31.40;20.58;;;;;;;12.92;100.00;101170.91;4939729;29;20126;-70
2021/10/22 04:50:24;;;;;;;28.48;20.42;;;;;;;13.00;100.00;101175.16;4927670;29;20440;-71
2021/10/22 04:53:10;;;;;;;29.58;20.45;;;;;;;13.07;100.00;101170.66;4927339;29;20024;-70
2021/10/22 04:55:56;;;;;;;29.52;20.92;;;;;;;13.40;100.00;101176.06;4940636;29;20028;-72
2021/10/22 04:58:45;;;;;;;28.20;21.73;;;;;;;13.56;100.00;101169.56;4927515;29;20028;-70
2021/10/22 05:01:31;;;;;;;25.02;19.38;;;;;;;13.32;100.00;101170.09;4940438;29;20050;-71
2021/10/22 05:04:17;;;;;;;36.80;19.85;;;;;;;13.61;100.00;101177.34;4940981;29;20107;-72
2021/10/22 05:07:03;;;;;;;27.77;19.27;;;;;;;13.43;100.00;101178.63;4941373;28;20107;-72
2021/10/22 05:09:49;;;;;;;24.70;18.92;;;;;;;13.61;100.00;101175.59;4941406;28;20390;-71
2021/10/22 05:12:35;;;;;;;33.28;18.65;;;;;;;13.77;100.00;101168.19;4940927;28;20043;-70
2021/10/22 05:15:21;;;;;;;24.70;17.45;;;;;;;13.95;100.00;101173.06;4926370;29;20353;-70
2021/10/22 05:18:08;;;;;;;25.85;18.10;;;;;;;14.34;100.00;101164.16;4940744;28;20062;-70
2021/10/22 05:20:54;;;;;;;23.42;16.95;;;;;;;13.98;100.00;101187.00;4940608;29;20024;-71
2021/10/22 05:23:39;;;;;;;24.80;16.13;;;;;;;14.39;100.00;101184.25;4926492;29;20051;-72
2021/10/22 05:26:25;;;;;;;22.35;15.57;;;;;;;14.14;100.00;101195.41;4939286;29;20090;-71
2021/10/22 05:29:11;;;;;;;27.27;17.35;;;;;;;14.43;100.00;101201.72;4939474;29;20048;-71
2021/10/22 05:31:57;;;;;;;32.42;18.17;;;;;;;14.71;100.00;101210.63;4940836;28;20031;-71
2021/10/22 05:34:43;;;;;;;27.52;17.45;;;;;;;14.66;100.00;101216.94;4940744;28;20058;-71
2021/10/22 05:37:29;;;;;;;30.60;18.05;;;;;;;14.88;100.00;101224.25;4926395;29;20385;-72
2021/10/22 05:40:14;;;;;;;34.28;18.33;;;;;;;15.04;100.00;101230.00;4940563;28;20488;-70
2021/10/22 05:43:00;;;;;;;31.45;18.75;;;;;;;14.77;100.00;101233.34;4939826;29;20055;-71
2021/10/22 05:45:46;;;;;;;34.25;19.98;;;;;;;14.88;100.00;101231.31;4939993;28;20023;-71
2021/10/22 05:48:32;;;;;;;33.38;19.08;;;;;;;15.24;100.00;101238.22;4926606;29;20049;-73
2021/10/22 05:51:18;;;;;;;28.02;17.98;;;;;;;15.32;100.00;101244.16;4941258;28;20115;-72
2021/10/22 05:54:04;;;;;;;29.83;18.48;;;;;;;15.22;100.00;101241.81;4939375;28;20489;-72
2021/10/22 05:56:49;;;;;;;32.03;18.25;;;;;;;15.14;100.00;101249.06;4926165;29;20051;-71
2021/10/22 05:59:35;;;;;;;36.03;19.35;;;;;;;15.41;100.00;101253.59;4939001;29;20023;-71
2021/10/22 06:02:21;;;;;;;42.35;23.13;;;;;;;15.51;100.00;101263.84;4926096;29;20055;-71
2021/10/22 06:05:08;;;;;;;40.10;21.33;;;;;;;15.47;100.00;101259.56;4940035;29;20504;-71
2021/10/22 06:07:54;;;;;;;40.17;21.65;;;;;;;15.42;100.00;101268.53;4940052;28;20063;-71
2021/10/22 06:10:39;;;;;;;33.47;19.90;;;;;;;15.45;100.00;101266.69;4939411;28;20210;-70
2021/10/22 06:13:25;;;;;;;32.78;19.60;;;;;;;15.71;100.00;101271.22;4939419;28;20098;-71
2021/10/22 06:16:12;;;;;;;35.42;19.95;;;;;;;15.66;100.00;101279.25;4938397;29;20020;-71
2021/10/22 06:19:10;;;;;;;32.92;18.45;;;;;;;15.78;100.00;101283.31;4939474;28;20028;-72
2021/10/22 06:24:51;;;;;;;26.25;17.42;;;;;;;16.44;100.00;101300.63;4939333;28;20047;-71
2021/10/22 06:27:37;;;;;;;26.40;17.38;;;;;;;16.39;100.00;101304.31;4939218;28;20043;-70
2021/10/22 06:30:23;;;;;;;29.80;16.92;;;;;;;16.00;100.00;101297.63;4939256;28;20059;-70
2021/10/22 06:33:09;;;;;;;23.42;14.48;;;;;;;16.17;100.00;101300.59;4925377;29;20147;-70
2021/10/22 06:35:55;;;;;;;23.35;14.48;;;;;;;16.63;100.00;101303.56;4938711;28;20441;-71
2021/10/22 06:38:40;;;;;;;20.95;13.93;;;;;;;16.18;100.00;101304.97;4939751;28;20046;-70
2021/10/22 06:41:26;;;;;;;20.00;13.68;;;;;;;16.25;100.00;101303.88;4938192;29;20032;-71
2021/10/22 06:44:14;;;;;;;22.38;12.43;;;;;;;16.64;100.00;101298.19;4924692;29;20032;-70
2021/10/22 06:47:00;;;;;;;25.33;12.98;;;;;;;16.86;100.00;101304.53;4925859;28;20040;-71
2021/10/22 06:49:46;;;;;;;22.90;13.27;;;;;;;16.98;100.00;101304.09;4939269;28;20105;-70
2021/10/22 06:52:32;;;;;;;19.48;12.25;;;;;;;16.68;100.00;101304.28;4938296;29;20059;-71
2021/10/22 06:55:21;;;;;;;18.17;12.32;;;;;;;17.27;100.00;101301.28;4938917;28;20020;-71
2021/10/22 06:58:07;;;;;;;18.92;12.48;;;;;;;17.63;100.00;101315.91;4938669;28;20035;-71
2021/10/22 07:00:53;;;;;;;18.77;11.85;;;;;;;17.01;100.00;101319.00;4937653;29;20031;-70
2021/10/22 07:03:41;;;;;;;22.98;13.05;;;;;;;17.15;100.00;101316.75;4938753;28;20117;-70
2021/10/22 07:09:31;;;;;;;16.05;12.70;;;;;;;17.88;100.00;101327.31;4938732;29;20043;-70
2021/10/22 07:12:17;;;;;;;19.67;11.82;;;;;;;17.82;100.00;101326.69;4939184;28;20114;-70
2021/10/22 07:15:05;;;;;;;17.77;11.40;;;;;;;17.86;100.00;101330.94;4938955;28;20114;-71
2021/10/22 07:17:52;;;;;;;19.75;12.75;;;;;;;18.25;100.00;101340.03;4924436;29;20039;-71
2021/10/22 07:20:37;;;;;;;22.95;13.65;;;;;;;18.14;100.00;101337.81;4937810;29;20028;-70
2021/10/22 07:23:24;;;;;;;19.35;12.70;;;;;;;18.38;100.00;101338.66;4937635;29;20449;-70
2021/10/22 07:26:10;;;;;;;21.60;12.55;;;;;;;18.11;100.00;101339.69;4937743;29;20031;-71
2021/10/22 07:28:55;;;;;;;22.27;13.52;;;;;;;18.41;100.00;101343.88;4937720;29;20028;-70
2021/10/22 07:31:43;;;;;;;17.17;12.20;;;;;;;18.68;100.00;101340.94;4937814;29;20436;-70
2021/10/22 07:34:28;;;;;;;17.80;10.85;;;;;;;18.09;100.00;101339.75;4937966;29;20039;-70
2021/10/22 07:37:14;;;;;;;17.15;11.60;;;;;;;18.52;100.00;101345.16;4937877;29;20150;-71
2021/10/22 07:40:01;;;;;;;16.38;10.90;;;;;;;18.60;100.00;101350.13;4924338;29;20068;-71
2021/10/22 07:42:47;;;;;;;15.82;11.25;;;;;;;19.21;100.00;101344.03;4937694;29;20046;-71
2021/10/22 07:45:33;;;;;;;19.13;10.40;;;;;;;18.97;100.00;101355.69;4938439;28;20055;-72
2021/10/22 07:48:19;;;;;;;13.88;10.55;;;;;;;19.33;100.00;101351.47;4937916;29;20050;-72
2021/10/22 07:51:05;;;;;;;15.10;10.20;;;;;;;19.72;100.00;101357.72;4924020;29;20024;-71
2021/10/22 07:53:51;;;;;;;13.20;10.52;;;;;;;19.74;100.00;101352.34;4925041;28;20031;-73
2021/10/22 07:56:37;;;;;;;17.85;11.10;;;;;;;19.90;100.00;101356.03;4937456;29;20369;-71
2021/10/22 07:59:23;;;;;;;16.75;9.73;;;;;;;20.52;100.00;101360.16;4938540;28;20039;-71
2021/10/22 08:02:11;;;;;;;16.20;9.63;;;;;;;20.22;100.00;101355.44;4937821;29;20035;-71
2021/10/22 08:04:56;;;;;;;13.57;9.02;;;;;;;21.01;100.00;101353.34;4936942;29;20054;-71
2021/10/22 08:07:42;;;;;;;12.55;9.07;;;;;;;20.19;100.00;101355.56;4936708;29;20090;-70
2021/10/22 08:10:29;;;;;;;18.10;12.38;;;;;;;20.40;100.00;101351.88;4923337;29;20086;-71
2021/10/22 08:13:14;;;;;;;13.20;9.05;;;;;;;20.64;100.00;101353.38;4937441;29;20449;-70
2021/10/22 08:16:01;;;;;;;12.98;8.98;;;;;;;20.95;100.00;101350.97;4936728;29;20023;-70
2021/10/22 08:18:47;;;;;;;12.68;8.63;;;;;;;21.39;100.00;101352.22;4937377;29;20463;-71
2021/10/22 08:24:19;;;;;;;12.70;8.35;;;;;;;21.41;98.68;101347.66;4937230;29;20074;-70
2021/10/22 08:27:06;;;;;;;10.30;7.63;;;;;;;20.93;100.00;101350.19;4936937;29;20030;-70
2021/10/22 08:29:52;;;;;;;12.68;8.05;;;;;;;21.21;100.00;101353.16;4937088;29;20043;-71
2021/10/22 08:32:38;;;;;;;12.68;9.32;;;;;;;21.64;98.77;101356.22;4937058;29;20441;-70
2021/10/22 08:35:27;;;;;;;10.88;8.23;;;;;;;21.31;98.02;101343.78;4923626;29;20031;-70
2021/10/22 08:38:13;;;;;;;9.90;8.35;;;;;;;21.25;100.00;101344.06;4936271;29;20449;-76
2021/10/22 08:40:59;;;;;;;17.73;8.15;;;;;;;21.29;99.38;101342.97;4937305;29;20045;-73
2021/10/22 08:43:45;;;;;;;13.27;8.18;;;;;;;20.86;100.00;101351.41;4935610;29;20035;-72
2021/10/22 08:46:35;;;;;;;11.85;8.10;;;;;;;21.34;100.00;101343.63;4936876;29;20024;-72
2021/10/22 08:49:21;;;;;;;9.32;7.65;;;;;;;22.07;96.61;101349.47;4937172;29;20039;-71
2021/10/22 08:52:07;;;;;;;15.00;8.30;;;;;;;21.82;98.86;101346.41;4937510;29;20036;-71
2021/10/22 08:54:54;;;;;;;9.65;7.88;;;;;;;21.76;96.25;101342.25;4937120;29;20448;-71
2021/10/22 08:57:45;;;;;;;13.57;8.52;;;;;;;21.41;97.93;101339.66;4936247;29;20123;-71
2021/10/22 09:00:34;;;;;;;8.90;7.97;;;;;;;22.16;96.67;101343.63;4940796;29;20032;-71
2021/10/22 09:03:20;;;;;;;10.27;7.38;;;;;;;22.39;95.67;101338.69;4940416;29;20102;-71
2021/10/22 09:06:14;;;;;;;12.70;8.00;;;;;;;22.18;95.09;101347.91;4940546;29;20445;-70
2021/10/22 09:09:00;;;;;;;11.30;7.30;;;;;;;22.06;95.43;101345.91;4939742;29;20052;-70
2021/10/22 09:11:47;;;;;;;10.35;7.78;;;;;;;22.62;91.58;101340.09;4939717;29;20028;-73
2021/10/22 09:14:34;;;;;;;10.43;6.82;;;;;;;22.46;88.84;101342.78;4926343;29;20028;-73
2021/10/22 09:17:20;;;;;;;12.15;7.18;;;;;;;22.26;89.73;101337.66;4940341;29;20042;-72
2021/10/22 09:20:10;;;;;;;9.35;7.05;;;;;;;22.09;89.07;101336.88;4939626;29;20028;-72
2021/10/22 09:23:03;;;;;;;11.70;6.82;;;;;;;22.22;88.92;101336.13;4940262;29;20098;-72
2021/10/22 09:25:49;;;;;;;8.20;7.10;;;;;;;22.22;90.10;101338.78;4939616;29;20118;-70
2021/10/22 09:28:35;;;;;;;12.82;8.60;;;;;;;21.80;89.27;101332.28;4939771;29;20043;-72
2021/10/22 09:31:22;;;;;;;10.43;7.10;;;;;;;22.03;89.79;101342.56;4939170;29;20516;-71
2021/10/22 09:34:08;;;;;;;10.15;7.72;;;;;;;22.30;87.71;101330.38;4925916;29;20044;-71
2021/10/22 09:36:54;;;;;;;8.82;6.93;;;;;;;22.18;88.35;101331.91;4939422;29;20066;-72
2021/10/22 09:39:40;;;;;;;8.32;6.85;;;;;;;22.07;90.29;101328.94;4939894;29;20041;-71
2021/10/22 09:42:25;;;;;;;8.88;6.80;;;;;;;21.89;91.79;101329.09;4939651;29;20039;-71
2021/10/22 09:45:23;;;;;;;9.27;7.13;;;;;;;21.80;92.76;101332.28;4939240;29;20110;-69
2021/10/22 09:48:26;;;;;;;8.13;6.60;;;;;;;22.24;89.99;101328.91;4939672;29;20443;-70
2021/10/22 09:51:33;;;;;;;11.20;6.88;;;;;;;22.31;89.67;101329.41;4939502;29;20036;-71
2021/10/22 09:54:19;;;;;;;9.38;7.35;;;;;;;22.69;87.80;101328.13;4939474;29;20102;-71
2021/10/22 09:57:07;;;;;;;8.50;6.95;;;;;;;22.38;89.02;101323.63;4938891;29;20028;-72
2021/10/22 10:00:02;;;;;;;12.52;7.18;;;;;;;22.29;90.30;101324.16;4939735;29;20114;-72
2021/10/22 10:02:48;;;;;;;8.75;7.35;;;;;;;22.32;93.04;101321.31;4925329;29;20028;-71
2021/10/22 10:05:34;;;;;;;10.23;7.95;;;;;;;22.79;90.39;101318.63;4938714;29;20372;-70
2021/10/22 10:08:20;;;;;;;10.88;8.13;;;;;;;22.61;93.41;101317.00;4938655;29;20555;-71
2021/10/22 10:11:09;;;;;;;12.80;8.18;;;;;;;22.61;92.16;101307.19;4938618;29;20050;-71
2021/10/22 10:13:57;;;;;;;9.10;7.50;;;;;;;22.31;95.91;101306.22;4939388;29;20364;-71
2021/10/22 10:16:46;;;;;;;10.57;8.10;;;;;;;22.60;93.52;101300.16;4938990;29;20110;-71
2021/10/22 10:19:37;;;;;;;10.02;8.23;;;;;;;22.53;94.64;101303.25;4938352;29;20044;-71
2021/10/22 10:22:28;;;;;;;10.38;7.85;;;;;;;23.38;91.34;101291.88;4925656;29;20031;-72
2021/10/22 10:25:18;;;;;;;9.77;8.07;;;;;;;23.52;89.62;101296.41;4938421;29;20036;-71
2021/10/22 10:28:06;;;;;;;9.77;8.77;;;;;;;23.77;87.55;101289.44;4938262;29;20032;-72
2021/10/22 10:30:51;;;;;;;12.57;8.13;;;;;;;23.00;93.07;101287.97;4939233;29;20451;-73
2021/10/22 10:33:38;;;;;;;14.10;8.38;;;;;;;23.38;88.50;101283.88;4938763;29;20056;-73
2021/10/22 10:36:50;;;;;;;10.35;7.53;;;;;;;23.22;93.47;101281.28;4937976;29;20368;-73
2021/10/22 10:39:36;;;;;;;11.23;8.00;;;;;;;23.04;94.56;101279.69;4938497;29;20039;-72
2021/10/22 10:42:34;;;;;;;19.85;15.05;;;;;;;23.16;93.10;101273.56;4925768;29;20031;-73
2021/10/22 10:45:24;;;;;;;21.08;15.82;;;;;;;23.72;90.95;101277.28;4925857;28;20475;-73
2021/10/22 10:48:20;;;;;;;10.75;8.35;;;;;;;22.83;92.96;101269.41;4939647;28;20040;-74
2021/10/22 10:51:07;;;;;;;10.35;8.43;;;;;;;23.19;94.90;101265.38;4938651;29;20117;-73
2021/10/22 10:54:01;;;;;;;10.40;8.25;;;;;;;23.30;93.47;101273.66;4938466;29;20055;-73
2021/10/22 10:56:47;;;;;;;9.02;7.97;;;;;;;23.73;91.09;101269.16;4938473;29;20087;-72
2021/10/22 10:59:43;;;;;;;9.35;7.68;;;;;;;24.25;85.98;101266.72;4938575;29;20059;-72
2021/10/22 11:03:05;;;;;;;9.57;7.82;;;;;;;24.15;84.76;101271.81;4937782;29;20050;-72
2021/10/22 11:05:55;;;;;;;10.23;7.63;;;;;;;23.82;84.82;101257.03;4937510;29;20031;-74
2021/10/22 11:08:43;;;;;;;11.70;7.38;;;;;;;23.81;83.55;101260.66;4938462;29;20023;-73
2021/10/22 11:11:34;;;;;;;9.02;7.10;;;;;;;24.41;79.27;101254.91;4938108;29;20043;-72
2021/10/22 11:14:22;;;;;;;8.35;6.60;;;;;;;24.15;79.32;101249.53;4937986;29;20027;-74
2021/10/22 11:17:09;;;;;;;8.73;6.57;;;;;;;24.15;80.75;101255.75;4924937;29;20039;-72
2021/10/22 11:19:59;;;;;;;9.50;6.55;;;;;;;24.25;79.43;101250.66;4937544;29;20023;-73
2021/10/22 11:22:46;;;;;;;7.90;6.38;;;;;;;24.34;78.81;101240.19;4937588;29;20038;-73
2021/10/22 11:25:33;;;;;;;9.25;6.50;;;;;;;24.42;80.89;101239.69;4924230;29;20175;-72
2021/10/22 11:28:30;;;;;;;8.98;6.57;;;;;;;25.17;74.89;101238.06;4938354;29;20038;-72
2021/10/22 11:31:37;;;;;;;9.32;6.40;;;;;;;25.07;73.62;101244.19;4937879;29;20027;-74
2021/10/22 11:34:32;;;;;;;8.45;6.43;;;;;;;24.69;73.63;101237.88;4937877;29;20028;-75
2021/10/22 11:37:20;;;;;;;7.60;5.70;;;;;;;24.60;71.33;101230.44;4923896;29;20091;-73
2021/10/22 11:40:10;;;;;;;7.85;5.90;;;;;;;24.83;70.24;101237.81;4937960;29;20139;-71
2021/10/22 11:43:06;;;;;;;8.48;5.70;;;;;;;24.17;70.96;101229.75;4938036;28;20314;-73
2021/10/22 11:45:53;;;;;;;7.70;5.80;;;;;;;24.55;71.18;101227.22;4938448;28;20445;-71
2021/10/22 11:48:38;;;;;;;7.45;6.28;;;;;;;24.44;71.77;101235.09;4937474;29;20067;-72
2021/10/22 11:51:25;;;;;;;6.57;5.38;;;;;;;24.68;65.70;101226.31;4937352;29;20098;-72
2021/10/22 11:54:10;;;;;;;9.63;7.13;;;;;;;24.47;65.65;101227.69;4936859;29;20094;-73
2021/10/22 11:56:58;;;;;;;9.23;5.55;;;;;;;24.68;64.13;101229.00;4936851;29;20034;-72
2021/10/22 11:59:48;;;;;;;8.35;5.70;;;;;;;24.79;65.01;101221.06;4937886;29;20055;-71
2021/10/22 12:02:34;;;;;;;8.35;5.35;;;;;;;24.99;61.79;101217.03;4937750;29;20358;-71
2021/10/22 12:05:20;;;;;;;10.75;5.07;;;;;;;24.61;62.81;101216.97;4937222;29;20449;-71
2021/10/22 12:08:06;;;;;;;6.93;5.82;;;;;;;24.31;62.70;101215.44;4936275;29;20035;-71
2021/10/22 12:10:54;;;;;;;6.63;5.53;;;;;;;23.77;62.66;101227.00;4937027;29;20063;-71
2021/10/22 12:13:43;;;;;;;8.32;5.70;;;;;;;23.87;62.08;101222.81;4936569;29;20400;-71
2021/10/22 12:16:30;;;;;;;6.82;5.15;;;;;;;23.69;63.52;101226.63;4938195;28;20465;-72
2021/10/22 12:19:16;;;;;;;7.43;5.47;;;;;;;23.88;64.49;101219.16;4937960;29;20114;-72
2021/10/22 12:22:02;;;;;;;8.90;6.88;;;;;;;24.19;64.41;101224.28;4937361;29;20035;-73
2021/10/22 12:24:51;;;;;;;8.73;6.70;;;;;;;24.46;64.55;101219.75;4936961;29;20031;-73
2021/10/22 12:27:37;;;;;;;9.05;5.32;;;;;;;24.19;64.61;101221.59;4937193;29;20376;-71
2021/10/22 12:30:25;;;;;;;7.47;5.43;;;;;;;24.31;64.36;101216.28;4923837;29;20087;-72
2021/10/22 12:33:13;;;;;;;8.65;5.18;;;;;;;24.18;65.40;101219.91;4937252;29;20035;-70
2021/10/22 12:36:13;;;;;;;9.85;5.22;;;;;;;23.90;66.90;101214.59;4940473;29;20122;-70
2021/10/22 12:39:00;;;;;;;9.13;5.43;;;;;;;24.11;67.18;101211.38;4941152;29;20036;-72
2021/10/22 12:41:46;;;;;;;8.30;5.65;;;;;;;24.37;65.68;101213.22;4940841;29;20035;-71
2021/10/22 12:44:32;;;;;;;9.68;5.47;;;;;;;23.73;67.77;101215.66;4940899;29;20373;-71
2021/10/22 12:47:17;;;;;;;8.60;5.90;;;;;;;23.74;69.18;101211.16;4926241;29;20069;-71
2021/10/22 12:50:04;;;;;;;9.23;5.80;;;;;;;23.78;68.35;101208.19;4939579;29;20023;-71
2021/10/22 12:52:59;;;;;;;6.65;5.80;;;;;;;23.80;68.48;101208.97;4940966;29;20031;-72